Alamo Heights, Texas
Current Conditions -  °F | °C
As of 8:51 PM on Sunday 23 Nov 2014 (Local Time) from KSAT Reporting Station
Few Clouds Few Clouds  
Wind Chill: 60°   Ceiling: Unl
Heat Index: 60°   Visibility: 10mi
Dew Point: 48°   Wind: 6mph
Humidity: 64%   Direction: 300°WNW
Pressure: 29.71"   Gusts: NA
Location:  29.4797°N, 98.4508°W
Report Text: KSAT 240251Z 30005KT 10SM FEW250 16/09 A2971 RMK AO2 SLP047 T01560089 53034
Loading
Personal Weather Stations






























Interactive Weather Map New forecast layout! Learn more

10-Day Weather Forecast

Advertisements
Track Severe Weather on mobile